Tampico, Montana
Current Conditions -  °F | °C
As of 9:53 PM on Friday 24 Oct 2014 (Local Time) from KGGW Reporting Station
Clear Clear  
Wind Chill: 43°   Ceiling: Unl
Heat Index: 46°   Visibility: 10mi
Dew Point: 28°   Wind: 6mph
Humidity: 50%   Direction: 250°WSW
Pressure: 30.06"   Gusts: NA
Location:  48.3775°N, 106.613°W
Report Text: KGGW 250353Z AUTO 25005KT 10SM CLR 08/M02 A3006 RMK AO2 SLP190 T00781022
Loading
Personal Weather Stations






























Interactive Weather Map
Tropical Storm Tracking
New forecast layout! Learn more

10-Day Weather Forecast

Advertisements
Track Severe Weather on mobile